Aviation Digital Data Service (ADDS)

Output produced by METARs form (0202 UTC 16 October 2018)
found at http://www.aviationweather.gov/metar/data/
 
Forecast for: RJOA (NEW HIROSHIMA , JP)
Text: TAF RJOA 152308Z 1600/1706 06006KT 9999 FEW025
Forecast period: 0000 to 0700 UTC 16 October 2018
Forecast type: FROM: standard forecast or significant change
Winds: from the ENE (60 degrees) at 7 MPH (6 knots; 3.1 m/s)
Visibility: 6 or more miles 10+ km)
Ceiling: at least 12,000 feet AGL
Clouds: few clouds at 2500 feet AGL
Weather: no significant weather forecast for this period
Text: BECMG 1607/1609 31005KT
Forecast period: 0700 UTC 16 October 2018 to 0600 UTC 17 October 2018
Forecast type: BECOMING: Conditions expected to become as follows by 0900 UTC 16 October 2018
Winds: from the NW (310 degrees) at 6 MPH (5 knots; 2.6 m/s)
Visibility: 6 or more miles 10+ km)
Ceiling: at least 12,000 feet AGL
Clouds: few clouds at 2500 feet AGL
Weather: no significant weather forecast for this period